Time;durP1;ratioP1;P1;durP2;ratioP2;P2;SDS_P1;SDS_P2;PMS_P1;PMS_P2;Temp;Humidity;BMP_temperature;BMP_pressure;BME280_temperature;BME280_humidity;BME280_pressure;Samples;Min_cycle;Max_cycle;Signal;HPM_P1;HPM_P2
2021/03/12 00:01:53;;;;;;;5.43;1.73;;;8.10;80.50;;;;;;5006736;28;20175;-89
2021/03/12 00:04:19;;;;;;;3.27;1.60;;;8.10;81.20;;;;;;5007136;28;20190;-88
2021/03/12 00:06:45;;;;;;;3.30;1.50;;;8.10;80.40;;;;;;4989672;28;20212;-89
2021/03/12 00:09:10;;;;;;;4.63;1.70;;;8.20;79.50;;;;;;4989870;28;20207;-89
2021/03/12 00:11:36;;;;;;;4.30;1.33;;;8.10;80.50;;;;;;5007102;28;20250;-88
2021/03/12 00:14:02;;;;;;;2.67;1.87;;;8.20;79.70;;;;;;4989671;28;20197;-87
2021/03/12 00:16:28;;;;;;;2.53;1.60;;;8.30;79.60;;;;;;5006520;28;20186;-88
2021/03/12 00:18:53;;;;;;;4.83;1.60;;;8.30;79.40;;;;;;5006569;28;20218;-88
2021/03/12 00:21:19;;;;;;;1.57;1.13;;;8.30;80.00;;;;;;4989237;28;20192;-88
2021/03/12 00:23:45;;;;;;;0.80;0.60;;;8.20;76.30;;;;;;5006688;28;20178;-88
2021/03/12 00:26:11;;;;;;;0.93;0.87;;;7.80;76.30;;;;;;5006321;28;20520;-90
2021/03/12 00:28:37;;;;;;;1.17;0.97;;;7.50;80.00;;;;;;4990029;28;20216;-88
2021/03/12 00:31:04;;;;;;;1.57;0.80;;;7.10;82.20;;;;;;5008056;28;20202;-89
2021/03/12 00:33:31;;;;;;;1.80;0.83;;;6.90;84.00;;;;;;5023006;28;20237;-89
2021/03/12 00:35:57;;;;;;;1.30;0.60;;;6.70;85.00;;;;;;5006324;28;20214;-88
2021/03/12 00:38:23;;;;;;;0.97;0.97;;;6.60;84.80;;;;;;5007312;28;20260;-88
2021/03/12 00:40:52;;;;;;;0.77;0.67;;;6.60;85.90;;;;;;4989791;28;20201;-89
2021/03/12 00:43:19;;;;;;;1.53;1.00;;;6.60;86.50;;;;;;5007234;28;20181;-89
2021/03/12 00:45:51;;;;;;;0.60;0.60;;;6.60;86.40;;;;;;5006815;28;20170;-88
2021/03/12 00:48:17;;;;;;;0.87;0.80;;;6.50;86.00;;;;;;5006977;28;20163;-89
2021/03/12 00:50:43;;;;;;;2.33;1.20;;;6.50;86.90;;;;;;5006828;28;20205;-89
2021/03/12 00:53:09;;;;;;;0.50;0.50;;;6.40;88.20;;;;;;5007791;28;20221;-88
2021/03/12 00:55:36;;;;;;;0.70;0.70;;;6.40;88.60;;;;;;5006586;28;20186;-88
2021/03/12 00:58:02;;;;;;;1.47;0.70;;;6.50;89.70;;;;;;5007420;28;20296;-89
2021/03/12 01:00:30;;;;;;;1.37;0.80;;;6.40;89.70;;;;;;5021700;28;20244;-90
2021/03/12 01:02:58;;;;;;;1.37;1.07;;;6.50;90.10;;;;;;4989445;28;20225;-89
2021/03/12 01:05:24;;;;;;;1.67;1.00;;;6.30;90.00;;;;;;5006147;28;20618;-89
2021/03/12 01:07:50;;;;;;;0.90;0.90;;;6.30;90.70;;;;;;5006285;28;20217;-90
2021/03/12 01:10:17;;;;;;;1.30;1.20;;;6.20;90.60;;;;;;5006987;28;20236;-89
2021/03/12 01:12:43;;;;;;;2.83;1.20;;;6.20;90.90;;;;;;5007056;28;20182;-89
2021/03/12 01:15:12;;;;;;;1.37;0.80;;;6.20;90.40;;;;;;4989115;28;20221;-89
2021/03/12 01:17:38;;;;;;;1.77;1.20;;;6.20;89.70;;;;;;4988873;28;20210;-88
2021/03/12 01:20:10;;;;;;;4.20;1.67;;;6.10;90.40;;;;;;5004613;28;20198;-89
2021/03/12 01:22:36;;;;;;;6.13;1.30;;;6.10;90.50;;;;;;5006332;28;20182;-87
2021/03/12 01:25:06;;;;;;;1.17;1.07;;;6.20;89.50;;;;;;5006930;28;20186;-87
2021/03/12 01:27:38;;;;;;;2.07;1.30;;;6.20;89.20;;;;;;5006053;28;20213;-89
2021/03/12 01:30:11;;;;;;;4.00;1.30;;;6.20;88.70;;;;;;4989581;28;20261;-89
2021/03/12 01:32:37;;;;;;;1.40;1.20;;;6.30;88.10;;;;;;5006809;28;20189;-89
2021/03/12 01:35:03;;;;;;;3.80;1.30;;;6.30;87.60;;;;;;5006203;28;20251;-90
2021/03/12 01:37:29;;;;;;;2.47;1.30;;;6.30;87.10;;;;;;5005196;28;20170;-89
2021/03/12 01:39:55;;;;;;;2.80;1.80;;;6.30;86.70;;;;;;5004873;28;20199;-89
2021/03/12 01:42:22;;;;;;;6.80;1.63;;;6.40;85.80;;;;;;5005512;28;20252;-90
2021/03/12 01:44:47;;;;;;;3.77;1.97;;;6.50;84.70;;;;;;4988499;28;20186;-90
2021/03/12 01:47:13;;;;;;;2.17;1.53;;;6.60;83.20;;;;;;5005106;28;20272;-90
2021/03/12 01:49:39;;;;;;;5.13;1.97;;;6.70;83.00;;;;;;5006126;28;20285;-89
2021/03/12 01:52:06;;;;;;;4.93;1.80;;;6.90;80.30;;;;;;5005316;28;20220;-89
2021/03/12 01:54:35;;;;;;;2.93;2.10;;;6.90;81.90;;;;;;4987756;28;20202;-89
2021/03/12 01:57:05;;;;;;;4.73;2.10;;;6.90;82.00;;;;;;5004665;28;20224;-88
2021/03/12 01:59:32;;;;;;;3.97;1.40;;;7.10;79.80;;;;;;4987552;28;20237;-90
2021/03/12 02:01:58;;;;;;;4.07;1.80;;;7.10;79.60;;;;;;5005188;28;20214;-89
2021/03/12 02:04:23;;;;;;;2.23;1.63;;;7.20;78.70;;;;;;5004134;28;20241;-89
2021/03/12 02:06:50;;;;;;;3.97;1.70;;;7.30;79.40;;;;;;4987484;28;20174;-90
2021/03/12 02:09:17;;;;;;;4.73;1.80;;;7.40;79.30;;;;;;5004988;28;20233;-88
2021/03/12 02:11:57;;;;;;;2.77;1.80;;;7.30;80.30;;;;;;5005012;28;20194;-89
2021/03/12 02:14:34;;;;;;;2.97;1.50;;;7.40;79.50;;;;;;5005147;28;20601;-88
2021/03/12 02:17:09;;;;;;;3.17;1.50;;;7.30;80.70;;;;;;5008875;28;20166;-88
2021/03/12 02:20:00;;;;;;;3.40;1.70;;;7.20;82.00;;;;;;5009016;28;20205;-90
2021/03/12 02:22:28;;;;;;;3.33;1.50;;;7.20;81.70;;;;;;5009294;28;20171;-88
2021/03/12 02:24:59;;;;;;;2.67;1.80;;;7.40;79.20;;;;;;5009293;28;20182;-88
2021/03/12 02:27:26;;;;;;;5.03;1.67;;;7.40;79.50;;;;;;5008787;28;20167;-89
2021/03/12 02:29:57;;;;;;;4.63;1.70;;;7.40;78.70;;;;;;4991994;28;20198;-89
2021/03/12 02:32:30;;;;;;;3.07;1.60;;;7.50;78.40;;;;;;5009517;28;20190;-90
2021/03/12 02:34:59;;;;;;;3.13;1.37;;;7.40;77.90;;;;;;5009164;28;20186;-88
2021/03/12 02:37:26;;;;;;;4.20;1.60;;;7.30;78.50;;;;;;5008388;28;20268;-89
2021/03/12 02:39:56;;;;;;;5.90;1.93;;;7.40;76.40;;;;;;5007915;28;20266;-88
2021/03/12 02:42:22;;;;;;;5.70;1.50;;;7.40;76.90;;;;;;5008489;28;20202;-88
2021/03/12 02:44:53;;;;;;;3.23;1.80;;;7.40;76.90;;;;;;4991097;28;20187;-87
2021/03/12 02:47:26;;;;;;;1.80;1.53;;;7.40;75.30;;;;;;5008820;28;20245;-89
2021/03/12 02:49:53;;;;;;;7.00;1.50;;;7.50;75.20;;;;;;5008205;28;20232;-88
2021/03/12 02:52:20;;;;;;;1.93;1.70;;;7.60;73.60;;;;;;4991856;28;20213;-89
2021/03/12 02:54:47;;;;;;;6.47;1.80;;;7.60;72.10;;;;;;4987848;28;20261;-88
2021/03/12 02:57:18;;;;;;;3.97;1.73;;;7.50;74.20;;;;;;4988375;28;20183;-89
2021/03/12 02:59:46;;;;;;;4.13;1.47;;;7.20;81.70;;;;;;4989115;28;20207;-90
2021/03/12 03:02:12;;;;;;;2.57;1.63;;;7.10;85.80;;;;;;4971936;28;20187;-89
2021/03/12 03:04:40;;;;;;;4.07;1.40;;;6.80;86.50;;;;;;5015076;28;20249;-88
2021/03/12 03:07:14;;;;;;;2.57;1.50;;;6.60;87.30;;;;;;5008509;28;20309;-90
2021/03/12 03:09:41;;;;;;;1.83;1.50;;;6.60;86.00;;;;;;5008245;28;20229;-90
2021/03/12 03:12:09;;;;;;;1.63;1.27;;;6.50;85.60;;;;;;5008833;28;20234;-90
2021/03/12 03:14:35;;;;;;;4.10;1.90;;;6.60;82.80;;;;;;5012079;28;20210;-87
2021/03/12 03:17:03;;;;;;;1.77;1.40;;;6.60;81.40;;;;;;5014512;28;20190;-90
2021/03/12 03:19:31;;;;;;;2.70;1.40;;;6.70;78.90;;;;;;4996159;28;20276;-88
2021/03/12 03:21:59;;;;;;;2.47;1.67;;;6.70;78.50;;;;;;4991373;28;20186;-87
2021/03/12 03:24:25;;;;;;;4.77;1.77;;;6.80;78.30;;;;;;5008368;28;20183;-89
2021/03/12 03:26:52;;;;;;;3.13;1.70;;;6.80;77.50;;;;;;5007384;28;20175;-88
2021/03/12 03:29:18;;;;;;;3.00;1.60;;;7.00;75.90;;;;;;5008698;28;20269;-89
2021/03/12 03:31:45;;;;;;;5.20;1.60;;;7.00;75.60;;;;;;5008246;28;20186;-90
2021/03/12 03:34:11;;;;;;;4.43;2.10;;;7.10;74.40;;;;;;5008469;28;20213;-87
2021/03/12 03:36:37;;;;;;;2.40;1.50;;;7.00;74.20;;;;;;5007624;28;20194;-89
2021/03/12 03:39:07;;;;;;;7.83;1.90;;;7.00;73.50;;;;;;5007967;28;20230;-89
2021/03/12 03:41:38;;;;;;;4.53;1.57;;;7.00;73.30;;;;;;4989562;28;20217;-89
2021/03/12 03:44:05;;;;;;;7.20;1.60;;;6.90;75.10;;;;;;5007983;28;20167;-88
2021/03/12 03:46:31;;;;;;;3.20;1.40;;;6.90;75.70;;;;;;5007562;28;20170;-89
2021/03/12 03:48:57;;;;;;;3.50;1.80;;;6.90;74.80;;;;;;5008272;28;20232;-89
2021/03/12 03:51:24;;;;;;;6.23;1.80;;;6.80;74.70;;;;;;5007583;28;20666;-89
2021/03/12 03:53:50;;;;;;;5.57;2.03;;;6.80;75.10;;;;;;5008340;28;20192;-88
2021/03/12 03:56:17;;;;;;;7.90;2.10;;;6.80;76.20;;;;;;5007747;28;20249;-89
2021/03/12 03:58:45;;;;;;;5.23;1.80;;;6.70;76.40;;;;;;5012227;28;20209;-87
2021/03/12 04:01:13;;;;;;;6.13;1.73;;;6.70;75.30;;;;;;5012297;28;20182;-88
2021/03/12 04:03:41;;;;;;;4.57;1.53;;;6.60;75.70;;;;;;4994509;28;20250;-87
2021/03/12 04:06:09;;;;;;;6.93;2.13;;;6.60;75.30;;;;;;5007324;28;20210;-88
2021/03/12 04:08:36;;;;;;;4.43;1.87;;;6.60;76.20;;;;;;4990099;28;20704;-88
2021/03/12 04:11:02;;;;;;;7.80;2.10;;;6.50;76.60;;;;;;5006991;28;20252;-89
2021/03/12 04:13:28;;;;;;;6.87;2.00;;;6.50;76.70;;;;;;5007120;28;20201;-87
2021/03/12 04:15:55;;;;;;;5.43;1.67;;;6.60;76.00;;;;;;5007042;28;20254;-88
2021/03/12 04:18:21;;;;;;;6.73;2.07;;;6.60;75.60;;;;;;5006879;28;20297;-88
2021/03/12 04:20:47;;;;;;;7.20;2.30;;;6.50;76.10;;;;;;5006632;28;20209;-88
2021/03/12 04:23:14;;;;;;;3.60;2.00;;;6.60;76.00;;;;;;4989753;28;20190;-89
2021/03/12 04:25:41;;;;;;;4.00;2.10;;;6.60;75.70;;;;;;4989300;28;20186;-88
2021/03/12 04:28:07;;;;;;;3.43;1.87;;;6.50;75.90;;;;;;4988820;28;20194;-89
2021/03/12 04:30:33;;;;;;;7.77;2.30;;;6.60;75.70;;;;;;4989114;28;20206;-87
2021/03/12 04:32:59;;;;;;;4.87;2.23;;;6.50;75.80;;;;;;5006242;28;20192;-88
2021/03/12 04:35:25;;;;;;;4.63;1.90;;;6.50;75.50;;;;;;5007391;28;20622;-86
2021/03/12 04:37:52;;;;;;;6.43;1.87;;;6.50;75.80;;;;;;5006522;28;20223;-87
2021/03/12 04:40:19;;;;;;;5.07;2.20;;;6.40;75.50;;;;;;4988650;28;20214;-89
2021/03/12 04:42:46;;;;;;;3.83;1.80;;;6.50;74.80;;;;;;4988483;28;20182;-88
2021/03/12 04:45:13;;;;;;;4.73;1.80;;;6.40;76.30;;;;;;5006319;28;20646;-88
2021/03/12 04:47:39;;;;;;;4.90;1.87;;;6.40;75.70;;;;;;4972768;28;20182;-88
2021/03/12 04:50:08;;;;;;;5.13;1.97;;;6.40;76.90;;;;;;5006148;28;20202;-88
2021/03/12 04:52:36;;;;;;;5.87;1.80;;;6.40;76.20;;;;;;5006537;28;20269;-88
2021/03/12 04:55:02;;;;;;;7.63;2.10;;;6.30;75.70;;;;;;5007431;28;20268;-87
2021/03/12 04:57:28;;;;;;;3.10;1.40;;;6.30;76.00;;;;;;4989143;28;20191;-88
2021/03/12 04:59:56;;;;;;;6.33;1.90;;;6.40;76.20;;;;;;5005263;28;20241;-88
2021/03/12 05:02:23;;;;;;;7.20;1.67;;;6.30;76.00;;;;;;4988970;28;20210;-87
2021/03/12 05:04:52;;;;;;;7.83;2.00;;;6.40;76.40;;;;;;5006534;28;20255;-88
2021/03/12 05:07:20;;;;;;;5.13;2.43;;;6.30;77.20;;;;;;5005977;28;20209;-88
2021/03/12 05:09:46;;;;;;;7.63;2.17;;;6.30;77.20;;;;;;5000474;28;20221;-90
2021/03/12 05:12:12;;;;;;;5.97;1.97;;;6.30;78.10;;;;;;5026826;28;20186;-88
2021/03/12 05:14:38;;;;;;;4.50;1.50;;;6.30;77.70;;;;;;5008193;28;20653;-88
2021/03/12 05:17:04;;;;;;;4.60;2.00;;;6.20;78.60;;;;;;5025949;28;20198;-88
2021/03/12 05:19:29;;;;;;;4.03;1.40;;;6.20;79.20;;;;;;5024837;28;20221;-89
2021/03/12 05:21:56;;;;;;;5.43;2.10;;;6.20;77.60;;;;;;5000810;28;20174;-88
2021/03/12 05:24:22;;;;;;;2.83;1.60;;;6.20;77.70;;;;;;4989044;28;20189;-89
2021/03/12 05:26:48;;;;;;;6.33;2.13;;;6.10;78.40;;;;;;4987754;28;20217;-88
2021/03/12 05:29:14;;;;;;;2.10;1.20;;;6.10;79.30;;;;;;4987945;28;20209;-88
2021/03/12 05:31:40;;;;;;;5.83;1.80;;;6.10;80.10;;;;;;4988175;28;20198;-88
2021/03/12 05:34:06;;;;;;;4.10;1.90;;;6.00;80.30;;;;;;4989866;28;20190;-88
2021/03/12 05:36:32;;;;;;;5.13;2.10;;;6.00;80.70;;;;;;4990722;28;20186;-89
2021/03/12 05:38:58;;;;;;;3.37;1.70;;;6.00;80.60;;;;;;4993880;28;20214;-88
2021/03/12 05:41:24;;;;;;;2.97;1.73;;;6.00;80.20;;;;;;4988343;28;20266;-88
2021/03/12 05:43:49;;;;;;;7.23;2.00;;;6.00;80.00;;;;;;5020847;28;20202;-88
2021/03/12 05:46:17;;;;;;;5.50;1.53;;;6.10;80.00;;;;;;5004597;28;20206;-88
2021/03/12 05:48:46;;;;;;;3.40;1.70;;;6.10;80.00;;;;;;4987417;28;20202;-87
2021/03/12 05:51:12;;;;;;;7.03;2.20;;;6.10;80.10;;;;;;5004894;28;20198;-87
2021/03/12 05:53:38;;;;;;;6.33;1.83;;;6.00;80.40;;;;;;5004224;28;20182;-87
2021/03/12 05:56:04;;;;;;;3.90;1.67;;;6.10;80.20;;;;;;4988033;28;20208;-88
2021/03/12 05:58:30;;;;;;;5.43;1.63;;;6.20;80.00;;;;;;5005938;28;20246;-87
2021/03/12 06:00:58;;;;;;;4.90;2.00;;;6.20;79.70;;;;;;5004912;28;20179;-87
2021/03/12 06:03:24;;;;;;;3.50;2.90;;;6.20;80.20;;;;;;5004539;28;20170;-87
2021/03/12 06:05:50;;;;;;;2.73;1.50;;;6.30;79.80;;;;;;5003905;28;20197;-88
2021/03/12 06:08:16;;;;;;;2.83;1.90;;;6.40;79.70;;;;;;5004031;28;20193;-86
2021/03/12 06:10:42;;;;;;;4.43;2.30;;;6.30;80.30;;;;;;4987622;28;20193;-85
2021/03/12 06:13:07;;;;;;;4.77;1.30;;;6.30;80.60;;;;;;4987273;28;20257;-86
2021/03/12 06:15:36;;;;;;;3.67;1.43;;;6.30;79.60;;;;;;5004545;28;20194;-85
2021/03/12 06:18:21;;;;;;;3.77;1.47;;;6.30;81.20;;;;;;5003825;28;20221;-85
2021/03/12 06:20:48;;;;;;;4.30;1.37;;;6.30;82.70;;;;;;4986590;28;20277;-87
2021/03/12 06:23:34;;;;;;;3.27;1.60;;;6.10;81.40;;;;;;4987614;28;20274;-88
2021/03/12 06:26:00;;;;;;;5.70;1.53;;;5.90;84.30;;;;;;4983814;28;20531;-88
2021/03/12 06:28:26;;;;;;;3.03;1.47;;;5.90;84.90;;;;;;4999955;28;20192;-88
2021/03/12 06:30:52;;;;;;;4.03;1.50;;;5.90;85.60;;;;;;5002765;28;20220;-88
2021/03/12 06:33:44;;;;;;;2.80;1.53;;;5.90;86.00;;;;;;5024366;28;20190;-87
2021/03/12 06:36:28;;;;;;;3.90;2.03;;;5.80;84.50;;;;;;5008946;28;20626;-88
2021/03/12 06:39:06;;;;;;;2.33;1.43;;;5.80;84.40;;;;;;5008629;28;20220;-87
2021/03/12 06:41:37;;;;;;;1.20;1.10;;;5.90;83.60;;;;;;5000729;28;20193;-87
2021/03/12 06:44:26;;;;;;;4.17;1.47;;;5.90;84.20;;;;;;5019102;28;20685;-88
2021/03/12 06:46:52;;;;;;;1.87;1.40;;;5.80;83.60;;;;;;4989699;28;20187;-88
2021/03/12 06:49:18;;;;;;;2.13;1.30;;;5.90;83.80;;;;;;4994338;28;20233;-87
2021/03/12 06:52:01;;;;;;;5.60;1.70;;;6.00;82.70;;;;;;4993480;28;20225;-87
2021/03/12 06:54:29;;;;;;;3.03;1.70;;;6.00;82.40;;;;;;5002456;28;20214;-87
2021/03/12 06:56:56;;;;;;;3.93;1.80;;;6.00;81.70;;;;;;5001656;28;20235;-87
2021/03/12 06:59:40;;;;;;;7.33;1.97;;;6.10;81.00;;;;;;4993806;28;20281;-86
2021/03/12 07:02:08;;;;;;;2.57;1.60;;;6.20;81.50;;;;;;5001197;28;20186;-87
2021/03/12 07:04:34;;;;;;;5.57;2.03;;;6.20;80.90;;;;;;5013103;28;20186;-86
2021/03/12 07:07:01;;;;;;;7.90;2.07;;;6.30;82.10;;;;;;5002527;28;20217;-87
2021/03/12 07:09:28;;;;;;;2.83;1.80;;;6.30;82.10;;;;;;4991029;28;20224;-87
2021/03/12 07:11:59;;;;;;;3.30;1.60;;;6.30;82.80;;;;;;5006697;28;20186;-86
2021/03/12 07:14:26;;;;;;;4.47;1.60;;;6.20;83.20;;;;;;4985370;28;20221;-87
2021/03/12 07:16:52;;;;;;;3.93;1.50;;;6.20;82.50;;;;;;4988943;28;20190;-87
2021/03/12 07:19:20;;;;;;;4.47;1.27;;;6.10;82.50;;;;;;5006423;28;20707;-86
2021/03/12 07:21:50;;;;;;;5.17;1.80;;;6.20;80.40;;;;;;5008105;28;20178;-86
2021/03/12 07:24:21;;;;;;;2.83;1.43;;;6.10;82.50;;;;;;5005117;28;20428;-87
2021/03/12 07:26:55;;;;;;;3.60;1.63;;;6.10;80.80;;;;;;4984444;28;20190;-87
2021/03/12 07:29:23;;;;;;;3.57;2.10;;;6.20;81.00;;;;;;4990338;28;20214;-87
2021/03/12 07:31:55;;;;;;;5.47;1.50;;;6.20;81.00;;;;;;5006016;28;20217;-87
2021/03/12 07:34:41;;;;;;;4.10;2.20;;;6.30;80.90;;;;;;5001219;28;20214;-87
2021/03/12 07:37:09;;;;;;;4.03;1.70;;;6.30;80.70;;;;;;4988483;28;20194;-87
2021/03/12 07:39:40;;;;;;;5.13;1.73;;;6.40;81.60;;;;;;5004016;28;20248;-86
2021/03/12 07:42:08;;;;;;;5.33;2.13;;;6.30;82.10;;;;;;5012353;28;20199;-86
2021/03/12 07:44:37;;;;;;;3.60;2.00;;;6.40;82.60;;;;;;5003253;28;20254;-87
2021/03/12 07:47:03;;;;;;;2.33;1.50;;;6.40;83.20;;;;;;5002897;28;20198;-87
2021/03/12 07:49:29;;;;;;;4.00;1.80;;;6.40;82.70;;;;;;5004393;28;20217;-87
2021/03/12 07:51:55;;;;;;;4.00;1.60;;;6.50;82.40;;;;;;4987648;28;20201;-87
2021/03/12 07:54:43;;;;;;;2.37;1.27;;;6.50;81.70;;;;;;5001248;28;20179;-86
2021/03/12 07:57:11;;;;;;;4.50;1.80;;;6.50;82.60;;;;;;4993364;28;20186;-87
2021/03/12 07:59:49;;;;;;;3.43;1.67;;;6.50;83.90;;;;;;5005172;28;20222;-86
2021/03/12 08:02:19;;;;;;;3.80;1.90;;;6.40;83.10;;;;;;5005600;28;20245;-87
2021/03/12 08:04:46;;;;;;;4.23;1.43;;;6.30;85.80;;;;;;5002610;28;20248;-87
2021/03/12 08:07:21;;;;;;;1.47;1.10;;;6.30;87.40;;;;;;5012512;28;20186;-87
2021/03/12 08:09:49;;;;;;;3.00;1.43;;;6.50;87.00;;;;;;5002302;28;20221;-86
2021/03/12 08:12:34;;;;;;;4.73;1.60;;;6.60;85.10;;;;;;5005049;28;20190;-87
2021/03/12 08:15:20;;;;;;;2.33;1.53;;;6.60;85.40;;;;;;4987393;28;20190;-85
2021/03/12 08:17:56;;;;;;;3.33;1.70;;;6.70;84.40;;;;;;4997529;28;20204;-86
2021/03/12 08:20:36;;;;;;;2.87;1.60;;;6.80;84.30;;;;;;5005791;28;20212;-87
2021/03/12 08:23:03;;;;;;;4.43;1.60;;;6.70;84.70;;;;;;5021784;28;20221;-87
2021/03/12 08:25:43;;;;;;;3.33;1.63;;;6.70;86.40;;;;;;5008331;28;20190;-87
2021/03/12 08:28:12;;;;;;;5.40;1.97;;;6.90;84.80;;;;;;5001426;28;20182;-87
2021/03/12 08:30:37;;;;;;;4.43;1.77;;;7.10;84.40;;;;;;5000310;28;20205;-87
2021/03/12 08:33:04;;;;;;;4.60;1.83;;;7.10;84.30;;;;;;5004605;28;20190;-87
2021/03/12 08:35:33;;;;;;;3.90;1.80;;;7.20;85.60;;;;;;5003709;28;20206;-86
2021/03/12 08:38:21;;;;;;;4.10;2.27;;;7.20;82.70;;;;;;4986613;28;20654;-86
2021/03/12 08:41:15;;;;;;;4.80;1.80;;;7.00;83.50;;;;;;5003574;28;20182;-87
2021/03/12 08:43:43;;;;;;;4.33;2.10;;;7.00;83.70;;;;;;4998466;28;20191;-86
2021/03/12 08:46:16;;;;;;;5.13;1.80;;;7.00;81.50;;;;;;4986289;28;21633;-88
2021/03/12 08:48:43;;;;;;;2.87;1.67;;;7.10;77.40;;;;;;5002426;28;20221;-87
2021/03/12 08:51:26;;;;;;;5.13;1.93;;;7.20;77.90;;;;;;5004995;28;20217;-86
2021/03/12 08:54:02;;;;;;;3.90;1.60;;;7.30;74.70;;;;;;5004666;28;20194;-86
2021/03/12 08:56:30;;;;;;;7.10;2.33;;;7.40;73.40;;;;;;5003368;28;20209;-87
2021/03/12 08:58:57;;;;;;;5.20;1.77;;;7.50;73.40;;;;;;5004555;28;20286;-86
2021/03/12 09:01:24;;;;;;;4.53;2.07;;;7.60;73.10;;;;;;5004069;28;20197;-86
2021/03/12 09:03:55;;;;;;;1.83;1.40;;;7.70;73.20;;;;;;5004360;28;20209;-86
2021/03/12 09:06:30;;;;;;;3.80;1.83;;;7.70;71.50;;;;;;4987286;28;20190;-87
2021/03/12 09:08:57;;;;;;;5.37;2.10;;;7.60;71.80;;;;;;4987136;28;20209;-86
2021/03/12 09:11:24;;;;;;;5.10;2.37;;;7.60;71.80;;;;;;5005206;28;20191;-86
2021/03/12 09:13:52;;;;;;;3.10;2.07;;;7.50;71.20;;;;;;5017704;28;20561;-86
2021/03/12 09:16:21;;;;;;;8.13;2.10;;;7.50;72.00;;;;;;5001055;28;20593;-86
2021/03/12 09:18:48;;;;;;;2.73;1.67;;;7.50;72.70;;;;;;5003894;28;20225;-86
2021/03/12 09:21:17;;;;;;;3.27;1.50;;;7.60;74.90;;;;;;5002224;28;20190;-87
2021/03/12 09:23:48;;;;;;;2.63;1.53;;;7.80;72.00;;;;;;5003798;28;20250;-87
2021/03/12 09:26:25;;;;;;;3.33;2.27;;;7.80;69.60;;;;;;5000770;28;20296;-86
2021/03/12 09:28:53;;;;;;;2.13;1.20;;;7.90;69.40;;;;;;4994739;28;20202;-86
2021/03/12 09:31:24;;;;;;;9.60;2.00;;;8.00;67.60;;;;;;4990291;28;20206;-86
2021/03/12 09:33:54;;;;;;;4.90;1.70;;;8.20;68.50;;;;;;4992721;28;20737;-86
2021/03/12 09:36:38;;;;;;;3.53;1.93;;;8.50;66.20;;;;;;4991937;28;20213;-86
2021/03/12 09:39:24;;;;;;;6.37;1.87;;;8.70;67.10;;;;;;4977994;28;20230;-87
2021/03/12 09:41:54;;;;;;;4.70;1.87;;;8.90;65.50;;;;;;4990206;28;20178;-87
2021/03/12 09:44:20;;;;;;;4.63;2.20;;;9.10;64.20;;;;;;4977240;28;20666;-86
2021/03/12 09:46:57;;;;;;;4.80;2.30;;;9.30;64.50;;;;;;4995298;28;20182;-87
2021/03/12 09:49:26;;;;;;;6.30;2.30;;;9.20;61.80;;;;;;4993069;28;20236;-87
2021/03/12 09:52:06;;;;;;;5.97;2.10;;;8.90;62.40;;;;;;4991300;28;20202;-87
2021/03/12 09:54:32;;;;;;;5.40;2.20;;;9.00;62.20;;;;;;4996377;28;20221;-85
2021/03/12 09:57:00;;;;;;;6.33;2.00;;;8.80;59.40;;;;;;4993611;28;20189;-85
2021/03/12 09:59:29;;;;;;;5.50;2.23;;;8.90;59.40;;;;;;4996607;28;20248;-86
2021/03/12 10:02:05;;;;;;;3.73;1.83;;;8.90;59.90;;;;;;4993259;28;20175;-86
2021/03/12 10:04:37;;;;;;;3.23;1.80;;;8.80;59.30;;;;;;4976347;28;20203;-86
2021/03/12 10:07:11;;;;;;;5.07;2.10;;;8.70;58.50;;;;;;4995962;28;20260;-86
2021/03/12 10:09:45;;;;;;;5.67;1.90;;;8.80;58.80;;;;;;4998314;28;20213;-86
2021/03/12 10:12:22;;;;;;;5.53;1.83;;;8.70;59.30;;;;;;5003647;28;20258;-86
2021/03/12 10:15:08;;;;;;;4.63;2.30;;;8.70;63.30;;;;;;5003551;28;20186;-85
2021/03/12 10:17:37;;;;;;;7.70;2.23;;;8.50;64.60;;;;;;4985286;28;20217;-86
2021/03/12 10:20:18;;;;;;;7.00;2.40;;;8.60;64.60;;;;;;4995998;28;20210;-85
2021/03/12 10:22:47;;;;;;;6.53;2.50;;;8.70;65.90;;;;;;5001998;28;20194;-84
2021/03/12 10:25:21;;;;;;;6.53;2.30;;;8.80;67.00;;;;;;5010122;28;20191;-85
2021/03/12 10:27:58;;;;;;;7.57;2.20;;;8.90;65.50;;;;;;5001204;28;20332;-85
2021/03/12 10:30:39;;;;;;;5.37;2.07;;;9.20;62.50;;;;;;4982120;28;20264;-85
2021/03/12 10:33:10;;;;;;;4.30;2.30;;;9.50;56.70;;;;;;4997682;28;20190;-85
2021/03/12 10:35:44;;;;;;;6.43;2.10;;;9.60;56.80;;;;;;4981535;28;20182;-85
2021/03/12 10:38:17;;;;;;;4.53;2.07;;;9.60;55.90;;;;;;4998857;28;20812;-86
2021/03/12 10:40:45;;;;;;;8.17;2.50;;;9.70;58.60;;;;;;4982303;28;20205;-85
2021/03/12 10:43:19;;;;;;;4.60;1.73;;;9.50;57.20;;;;;;5001925;28;20555;-86
2021/03/12 10:45:56;;;;;;;5.20;1.83;;;9.50;55.30;;;;;;5000193;28;20596;-85
2021/03/12 10:48:28;;;;;;;5.43;2.03;;;9.30;54.90;;;;;;5000141;28;20197;-86
2021/03/12 10:51:00;;;;;;;4.97;2.00;;;9.40;56.20;;;;;;5002208;28;20554;-85
2021/03/12 10:53:26;;;;;;;4.27;2.17;;;9.30;57.40;;;;;;5002103;28;20612;-85
2021/03/12 10:56:01;;;;;;;4.77;2.00;;;9.50;58.70;;;;;;5001982;28;20281;-86
2021/03/12 10:58:29;;;;;;;7.27;2.60;;;9.60;57.00;;;;;;4983893;28;20213;-86
2021/03/12 11:01:19;;;;;;;5.17;2.17;;;9.40;57.90;;;;;;5002256;28;20191;-86
2021/03/12 11:03:46;;;;;;;2.87;2.10;;;9.30;56.90;;;;;;5003031;28;20237;-86
2021/03/12 11:06:14;;;;;;;6.47;1.97;;;9.30;56.90;;;;;;4984291;28;20266;-86
2021/03/12 11:08:40;;;;;;;5.77;2.40;;;9.40;57.50;;;;;;5002213;28;20220;-86
2021/03/12 11:11:09;;;;;;;6.43;2.10;;;9.50;58.00;;;;;;5001706;28;20451;-85
2021/03/12 11:13:36;;;;;;;5.10;2.10;;;9.50;55.80;;;;;;5003835;28;20712;-87
2021/03/12 11:16:02;;;;;;;5.67;1.90;;;9.60;56.00;;;;;;5004962;28;20213;-85
2021/03/12 11:18:31;;;;;;;3.53;2.00;;;9.50;57.10;;;;;;4970519;28;20209;-85
2021/03/12 11:20:59;;;;;;;3.80;1.73;;;9.60;53.90;;;;;;5003117;28;20190;-86
2021/03/12 11:23:25;;;;;;;7.77;2.23;;;9.50;52.20;;;;;;5015214;28;20217;-85
2021/03/12 11:25:51;;;;;;;5.90;1.83;;;9.60;53.30;;;;;;5004577;28;20186;-89
2021/03/12 11:28:17;;;;;;;5.03;2.00;;;9.60;55.40;;;;;;5008609;28;20187;-86
2021/03/12 11:30:43;;;;;;;4.47;2.10;;;9.50;54.20;;;;;;4987695;28;20314;-86
2021/03/12 11:33:08;;;;;;;4.27;2.23;;;9.50;53.50;;;;;;5019520;28;20269;-86
2021/03/12 11:35:34;;;;;;;6.07;2.30;;;9.60;54.20;;;;;;5007905;28;20253;-84
2021/03/12 11:38:00;;;;;;;8.33;2.33;;;9.60;54.50;;;;;;5004722;28;20229;-86
2021/03/12 11:40:26;;;;;;;6.67;2.23;;;9.60;55.90;;;;;;4998141;28;20281;-86
2021/03/12 11:42:52;;;;;;;5.13;2.10;;;9.70;54.90;;;;;;4986716;28;20631;-87
2021/03/12 11:45:20;;;;;;;7.47;2.30;;;9.80;53.80;;;;;;4986343;28;20690;-84
2021/03/12 11:47:47;;;;;;;4.53;1.70;;;9.80;52.70;;;;;;5002168;28;20183;-85
2021/03/12 11:50:16;;;;;;;6.20;2.00;;;10.00;54.30;;;;;;5002998;28;20574;-86
2021/03/12 11:52:42;;;;;;;6.03;2.13;;;9.90;53.70;;;;;;5002558;28;20194;-84
2021/03/12 11:55:09;;;;;;;6.27;2.10;;;10.00;53.90;;;;;;5001783;28;20245;-85
2021/03/12 11:57:36;;;;;;;8.20;2.57;;;9.90;53.50;;;;;;5003154;28;20210;-85
2021/03/12 12:00:10;;;;;;;3.80;1.80;;;9.90;53.00;;;;;;5001508;28;20210;-86
2021/03/12 12:02:36;;;;;;;6.00;2.00;;;9.80;54.50;;;;;;5003137;28;20879;-87
2021/03/12 12:05:05;;;;;;;5.20;2.17;;;9.90;52.70;;;;;;5004189;28;20182;-84
2021/03/12 12:07:31;;;;;;;6.17;2.10;;;9.80;52.80;;;;;;4999044;28;20182;-86
2021/03/12 12:09:57;;;;;;;5.67;2.20;;;9.80;53.80;;;;;;4996785;28;20226;-86
2021/03/12 12:12:23;;;;;;;4.93;2.10;;;10.10;54.60;;;;;;4984487;28;20201;-88
2021/03/12 12:14:48;;;;;;;10.77;2.67;;;10.20;53.40;;;;;;5001467;28;20195;-85
2021/03/12 12:17:14;;;;;;;4.20;1.90;;;10.20;52.90;;;;;;5000281;28;20182;-86
2021/03/12 12:19:41;;;;;;;7.17;2.30;;;10.20;52.40;;;;;;5001735;28;20244;-86
2021/03/12 12:22:09;;;;;;;5.93;2.27;;;10.20;53.00;;;;;;5000270;28;20235;-86
2021/03/12 12:24:35;;;;;;;4.97;1.93;;;10.20;54.00;;;;;;4986883;28;20178;-85
2021/03/12 12:27:02;;;;;;;3.73;2.00;;;10.10;52.60;;;;;;5001435;28;20190;-86
2021/03/12 12:29:28;;;;;;;5.50;2.23;;;10.30;51.90;;;;;;5014534;28;20286;-87
2021/03/12 12:31:54;;;;;;;5.80;1.97;;;10.70;51.30;;;;;;4997797;28;20237;-86
2021/03/12 12:34:19;;;;;;;6.73;2.50;;;11.10;50.50;;;;;;5002215;28;21169;-84
2021/03/12 12:36:46;;;;;;;6.10;2.27;;;11.60;49.30;;;;;;5001178;28;20190;-86
2021/03/12 12:39:12;;;;;;;4.47;2.20;;;12.00;46.90;;;;;;5000972;28;20226;-85
2021/03/12 12:41:40;;;;;;;4.67;2.60;;;12.20;49.40;;;;;;5002273;28;20264;-85
2021/03/12 12:44:09;;;;;;;8.10;2.70;;;12.00;48.80;;;;;;5002603;28;20210;-85
2021/03/12 12:46:36;;;;;;;6.27;1.87;;;11.70;48.30;;;;;;5005705;28;20579;-86
2021/03/12 12:49:02;;;;;;;4.60;1.90;;;11.70;49.00;;;;;;5003222;28;20813;-86
2021/03/12 12:51:28;;;;;;;7.17;2.37;;;11.60;48.80;;;;;;5001899;28;20209;-87
2021/03/12 12:53:54;;;;;;;5.20;2.10;;;11.30;50.40;;;;;;5000472;28;20558;-86
2021/03/12 12:56:20;;;;;;;17.33;16.13;;;11.40;50.50;;;;;;5002997;28;20209;-85
2021/03/12 12:58:46;;;;;;;6.30;2.30;;;11.90;49.50;;;;;;5003693;28;20214;-86
2021/03/12 13:01:12;;;;;;;5.63;2.30;;;12.30;48.60;;;;;;4985554;28;20196;-84
2021/03/12 13:03:38;;;;;;;6.23;2.77;;;12.40;46.50;;;;;;4969866;28;20202;-85
2021/03/12 13:06:04;;;;;;;4.63;2.10;;;12.50;47.10;;;;;;4986445;28;20201;-87